Search for airport 
image banner adimage banner adimage banner ad
image banner ad

CL40 - Antelope Valley Service Center

Located in Lancaster, United States

ICAO - CL40, IATA -

Data provided by Airmate  

General information

Coordinates: N34°38'53" W118°8'43"
Elevation is 2522 feet MSL.
Magnetic variation is 14° East
View others Airports in California

Operational data

Special qualification required
Current time UTC:
Current local time:
Weather at : KPMD - Palmdale Usaf Plant 42 ( 6 km )
METAR: KPMD 270353Z 27003KT 10SM CLR 28/12 A3001 RMK AO2 SLP131 T02780122
TAF: KPMD 262346Z 2700/2724 24007KT P6SM VCSH BKN120 FM270400 23007KT P6SM SCT150 FM272200 23010KT P6SM VCTS BKN090CB
View NOTAMs / SUP AIP / TFR affecting this airport [VIEW]
Communications frequencies: [VIEW]

Runways:

Airport contact information

Address: Lancaster United States

Satellite view of CL40